Time;durP1;ratioP1;P1;durP2;ratioP2;P2;SDS_P1;SDS_P2;PMS_P1;PMS_P2;Temp;Humidity;BMP_temperature;BMP_pressure;BME280_temperature;BME280_humidity;BME280_pressure;Samples;Min_cycle;Max_cycle;Signal;HPM_P1;HPM_P2
2022/11/13 00:02:04;;;;;;;60.88;56.63;;;12.30;99.90;;;;;;5033585;28;20492;-81
2022/11/13 00:04:30;;;;;;;58.80;54.08;;;12.30;99.90;;;;;;5051715;28;20057;-81
2022/11/13 00:06:56;;;;;;;56.40;51.40;;;12.40;99.90;;;;;;5033982;28;20458;-81
2022/11/13 00:09:22;;;;;;;53.92;50.00;;;12.20;99.90;;;;;;5051528;28;20048;-81
2022/11/13 00:11:48;;;;;;;59.40;54.65;;;12.20;99.90;;;;;;5053318;28;20462;-81
2022/11/13 00:14:14;;;;;;;59.70;55.10;;;12.00;99.90;;;;;;5054931;28;20037;-81
2022/11/13 00:16:41;;;;;;;58.58;54.33;;;11.80;99.90;;;;;;5054552;28;20393;-81
2022/11/13 00:19:07;;;;;;;56.60;52.20;;;11.70;99.90;;;;;;5036399;28;20037;-81
2022/11/13 00:21:33;;;;;;;51.25;47.03;;;11.70;99.90;;;;;;5055051;28;20052;-81
2022/11/13 00:23:59;;;;;;;49.05;44.63;;;11.70;99.90;;;;;;5054974;28;20037;-81
2022/11/13 00:26:27;;;;;;;47.50;43.47;;;11.60;99.90;;;;;;5054910;28;20056;-81
2022/11/13 00:28:54;;;;;;;46.25;42.33;;;11.60;99.90;;;;;;5054553;28;20040;-81
2022/11/13 00:31:20;;;;;;;46.10;42.05;;;11.70;99.90;;;;;;5036724;28;20489;-81
2022/11/13 00:33:46;;;;;;;44.03;40.15;;;11.70;99.90;;;;;;5037048;28;20029;-81
2022/11/13 00:36:18;;;;;;;44.65;40.83;;;11.80;99.90;;;;;;5036928;28;20385;-81
2022/11/13 00:38:44;;;;;;;42.88;39.28;;;11.90;99.90;;;;;;5019997;28;20397;-81
2022/11/13 00:41:10;;;;;;;44.42;40.47;;;12.00;99.90;;;;;;5054513;28;20048;-81
2022/11/13 00:43:36;;;;;;;48.90;44.90;;;12.00;99.90;;;;;;5054446;28;20021;-81
2022/11/13 00:46:03;;;;;;;47.97;44.03;;;12.10;99.90;;;;;;5036421;28;20029;-81
2022/11/13 00:48:29;;;;;;;55.03;50.45;;;12.10;99.90;;;;;;5036692;28;20033;-80
2022/11/13 00:50:55;;;;;;;62.30;57.55;;;12.20;99.90;;;;;;5020136;28;20485;-81
2022/11/13 00:53:21;;;;;;;59.67;55.42;;;12.30;99.90;;;;;;5036904;28;20377;-81
2022/11/13 00:55:47;;;;;;;60.60;56.35;;;12.30;99.90;;;;;;5036066;28;20036;-81
2022/11/13 00:58:13;;;;;;;62.90;58.40;;;12.20;99.90;;;;;;5036166;28;20033;-81
2022/11/13 01:00:40;;;;;;;65.32;60.70;;;12.00;99.90;;;;;;5036380;28;20048;-81
2022/11/13 01:03:06;;;;;;;69.95;64.97;;;12.00;99.90;;;;;;5054228;28;20029;-81
2022/11/13 01:05:36;;;;;;;63.40;58.83;;;12.10;99.90;;;;;;5054154;28;20039;-80
2022/11/13 01:08:03;;;;;;;75.40;70.25;;;12.10;99.90;;;;;;5054196;28;20033;-81
2022/11/13 01:10:29;;;;;;;73.82;68.97;;;12.20;99.90;;;;;;5054199;28;20028;-81
2022/11/13 01:12:55;;;;;;;72.68;67.93;;;12.30;99.90;;;;;;5053721;28;20032;-81
2022/11/13 01:15:21;;;;;;;77.15;72.15;;;12.30;99.90;;;;;;5019348;28;20358;-81
2022/11/13 01:17:48;;;;;;;75.25;70.43;;;12.10;99.90;;;;;;5035362;28;20037;-81
2022/11/13 01:20:14;;;;;;;67.25;62.63;;;12.10;99.90;;;;;;5036261;28;20025;-80
2022/11/13 01:22:40;;;;;;;56.13;51.90;;;12.20;99.90;;;;;;5035553;28;20037;-81
2022/11/13 01:25:07;;;;;;;51.40;47.42;;;12.10;99.90;;;;;;5053927;28;20025;-81
2022/11/13 01:27:35;;;;;;;59.70;55.20;;;12.10;99.90;;;;;;5035351;28;20045;-81
2022/11/13 01:30:01;;;;;;;80.00;74.63;;;12.10;99.90;;;;;;5019084;28;20493;-81
2022/11/13 01:32:27;;;;;;;87.20;81.72;;;12.10;99.90;;;;;;5035605;28;20033;-81
2022/11/13 01:34:53;;;;;;;71.28;66.22;;;11.90;99.90;;;;;;5035826;28;20041;-81
2022/11/13 01:37:19;;;;;;;73.47;68.22;;;11.70;99.90;;;;;;5053560;28;20036;-81
2022/11/13 01:39:45;;;;;;;65.45;60.65;;;11.40;99.90;;;;;;5053501;28;20033;-81
2022/11/13 01:42:12;;;;;;;58.75;54.42;;;11.30;99.90;;;;;;5035219;28;20053;-81
2022/11/13 01:44:48;;;;;;;68.70;63.70;;;11.20;99.90;;;;;;5035165;28;20037;-81
2022/11/13 01:47:14;;;;;;;78.70;73.40;;;11.40;99.90;;;;;;5052983;28;20038;-81
2022/11/13 01:49:41;;;;;;;83.88;78.50;;;11.60;99.90;;;;;;5014851;28;20052;-81
2022/11/13 01:52:21;;;;;;;54.15;50.00;;;11.70;99.90;;;;;;4998699;28;20394;-81
2022/11/13 01:54:49;;;;;;;38.03;35.35;;;11.80;99.90;;;;;;5033216;28;20462;-80
2022/11/13 01:57:15;;;;;;;42.70;39.40;;;11.80;99.90;;;;;;4998840;28;20040;-81
2022/11/13 01:59:45;;;;;;;67.70;62.90;;;11.90;99.90;;;;;;5015750;28;20029;-81
2022/11/13 02:02:11;;;;;;;60.33;55.97;;;11.60;99.90;;;;;;5015236;28;20026;-81
2022/11/13 02:04:37;;;;;;;77.70;72.35;;;11.60;99.90;;;;;;5032127;28;20056;-81
2022/11/13 02:07:08;;;;;;;86.38;80.80;;;11.50;99.90;;;;;;4998801;28;20033;-80
2022/11/13 02:09:36;;;;;;;44.05;40.55;;;11.50;99.90;;;;;;5015430;28;20034;-81
2022/11/13 02:12:03;;;;;;;55.20;50.30;;;11.70;99.90;;;;;;5015508;28;20029;-81
2022/11/13 02:14:30;;;;;;;57.33;53.17;;;11.60;99.90;;;;;;5031197;28;20501;-81
2022/11/13 02:16:58;;;;;;;47.35;42.15;;;11.70;99.90;;;;;;5014914;28;20033;-81
2022/11/13 02:19:37;;;;;;;82.53;74.40;;;11.60;99.90;;;;;;5022876;28;20025;-81
2022/11/13 02:22:20;;;;;;;74.78;69.75;;;11.50;99.90;;;;;;5034973;28;20032;-81
2022/11/13 02:24:46;;;;;;;78.53;73.38;;;11.60;99.90;;;;;;5034684;28;20025;-81
2022/11/13 02:27:31;;;;;;;91.35;78.72;;;11.50;99.90;;;;;;5035043;28;20040;-80
2022/11/13 02:29:57;;;;;;;83.43;75.28;;;11.30;99.90;;;;;;5052682;28;20044;-81
2022/11/13 02:32:23;;;;;;;167.48;86.90;;;11.30;99.90;;;;;;5052183;28;20037;-81
2022/11/13 02:34:49;;;;;;;154.57;74.30;;;11.30;99.90;;;;;;5051722;28;20028;-81
2022/11/13 02:37:15;;;;;;;97.80;83.20;;;11.40;99.90;;;;;;5034853;28;20037;-81
2022/11/13 02:39:41;;;;;;;113.10;84.32;;;11.40;99.90;;;;;;5052033;28;20457;-81
2022/11/13 02:42:07;;;;;;;97.15;78.35;;;11.40;99.90;;;;;;5052630;28;20036;-81
2022/11/13 02:44:33;;;;;;;77.35;71.07;;;11.50;99.90;;;;;;5052430;28;20393;-83
2022/11/13 02:46:59;;;;;;;83.88;78.30;;;11.60;99.90;;;;;;5051971;28;20037;-83
2022/11/13 02:49:25;;;;;;;89.43;81.43;;;11.70;99.90;;;;;;5052228;28;20072;-83
2022/11/13 02:51:51;;;;;;;87.75;78.93;;;11.60;99.90;;;;;;5052428;28;20025;-83
2022/11/13 02:54:17;;;;;;;79.90;44.50;;;11.40;99.90;;;;;;5032725;28;20048;-83
2022/11/13 02:56:44;;;;;;;70.60;44.17;;;11.40;99.90;;;;;;5052212;28;20029;-80
2022/11/13 02:59:10;;;;;;;70.93;47.92;;;11.50;99.90;;;;;;5051711;28;20045;-83
2022/11/13 03:01:36;;;;;;;55.60;41.78;;;11.50;99.90;;;;;;5016549;28;20044;-83
2022/11/13 03:04:02;;;;;;;57.58;53.25;;;11.60;99.90;;;;;;5029203;28;20029;-83
2022/11/13 03:06:28;;;;;;;110.35;43.97;;;11.60;99.90;;;;;;5044784;28;20033;-80
2022/11/13 03:08:54;;;;;;;171.02;50.28;;;11.50;99.90;;;;;;5037960;28;20041;-80
2022/11/13 03:11:20;;;;;;;71.38;64.75;;;11.40;99.90;;;;;;5042065;28;20040;-82
2022/11/13 03:13:46;;;;;;;99.00;47.50;;;11.30;99.90;;;;;;5040929;28;20073;-82
2022/11/13 03:16:14;;;;;;;75.53;59.00;;;11.30;99.90;;;;;;5012836;28;20045;-83
2022/11/13 03:18:40;;;;;;;69.47;63.95;;;11.20;99.90;;;;;;5011857;28;20032;-82
2022/11/13 03:21:11;;;;;;;57.58;53.20;;;11.20;99.90;;;;;;5033137;28;20040;-83
2022/11/13 03:23:38;;;;;;;60.83;56.53;;;11.00;99.90;;;;;;5031839;28;20491;-82
2022/11/13 03:26:07;;;;;;;67.07;62.58;;;10.70;99.90;;;;;;5015493;28;20033;-83
2022/11/13 03:28:34;;;;;;;57.67;52.67;;;10.40;99.90;;;;;;5050586;28;20470;-82
2022/11/13 03:31:00;;;;;;;57.88;54.13;;;10.40;99.90;;;;;;5050453;28;20033;-83
2022/11/13 03:33:26;;;;;;;53.80;50.28;;;10.20;99.90;;;;;;5050213;28;20378;-83
2022/11/13 03:35:52;;;;;;;50.20;46.13;;;10.10;99.90;;;;;;5032528;28;20032;-82
2022/11/13 03:38:18;;;;;;;54.97;48.65;;;10.10;99.90;;;;;;5051465;28;20398;-81
2022/11/13 03:40:44;;;;;;;44.40;40.67;;;10.10;99.90;;;;;;5051896;28;20048;-82
2022/11/13 03:43:12;;;;;;;48.38;44.53;;;10.20;99.90;;;;;;5052029;28;20052;-81
2022/11/13 03:45:38;;;;;;;44.55;38.78;;;10.10;99.90;;;;;;5051450;28;20029;-82
2022/11/13 03:48:05;;;;;;;46.78;37.55;;;10.00;99.90;;;;;;5055500;28;20033;-82
2022/11/13 03:50:31;;;;;;;39.47;33.15;;;10.00;99.90;;;;;;5038004;28;20087;-82
2022/11/13 03:52:57;;;;;;;36.60;33.40;;;9.80;99.90;;;;;;5055355;28;20029;-82
2022/11/13 03:55:23;;;;;;;36.42;33.08;;;9.80;99.90;;;;;;5055481;28;20033;-82
2022/11/13 03:57:49;;;;;;;35.28;32.33;;;9.80;99.90;;;;;;5037951;28;20482;-81
2022/11/13 04:00:16;;;;;;;58.40;38.03;;;9.80;99.90;;;;;;5055112;28;20025;-82
2022/11/13 04:02:42;;;;;;;38.72;35.47;;;9.80;99.90;;;;;;5055398;28;20029;-82
2022/11/13 04:05:08;;;;;;;67.75;40.08;;;9.80;99.90;;;;;;5036987;28;20386;-82
2022/11/13 04:07:34;;;;;;;36.95;33.80;;;9.80;99.90;;;;;;5053864;28;20394;-83
2022/11/13 04:10:00;;;;;;;34.08;30.77;;;9.90;99.90;;;;;;5020533;28;20049;-83
2022/11/13 04:12:26;;;;;;;52.78;29.80;;;9.80;99.90;;;;;;5055244;28;20029;-84
2022/11/13 04:14:52;;;;;;;28.38;26.42;;;9.70;99.90;;;;;;5055284;28;20029;-83
2022/11/13 04:17:18;;;;;;;33.05;28.30;;;9.50;99.90;;;;;;5054508;28;20040;-84
2022/11/13 04:19:44;;;;;;;34.20;31.00;;;9.50;99.90;;;;;;5036003;28;20040;-84
2022/11/13 04:22:10;;;;;;;30.55;27.50;;;9.60;99.90;;;;;;5037437;28;20040;-83
2022/11/13 04:24:36;;;;;;;28.33;25.55;;;9.60;99.90;;;;;;5037303;28;20040;-83
2022/11/13 04:27:03;;;;;;;45.63;28.33;;;9.70;99.90;;;;;;5037160;28;20036;-83
2022/11/13 04:29:29;;;;;;;28.38;25.63;;;9.70;99.90;;;;;;5054899;28;20044;-84
2022/11/13 04:31:55;;;;;;;29.08;26.48;;;9.70;99.90;;;;;;5036701;28;20492;-84
2022/11/13 04:34:21;;;;;;;80.47;27.15;;;9.80;99.90;;;;;;5054505;28;20501;-84
2022/11/13 04:36:47;;;;;;;94.65;29.90;;;9.70;99.90;;;;;;5035951;28;20044;-83
2022/11/13 04:39:13;;;;;;;47.92;27.25;;;9.80;99.90;;;;;;5036948;28;20469;-84
2022/11/13 04:44:23;;;;;;;51.88;28.70;;;9.80;99.90;;;;;;5041261;28;20048;-84
2022/11/13 04:46:50;;;;;;;31.30;28.35;;;9.60;99.90;;;;;;5019808;28;20477;-83
2022/11/13 04:49:16;;;;;;;101.50;30.25;;;9.50;99.90;;;;;;5054021;28;20025;-83
2022/11/13 04:51:42;;;;;;;28.80;26.50;;;9.50;99.90;;;;;;5054606;28;20029;-83
2022/11/13 04:54:08;;;;;;;33.90;27.40;;;9.60;99.90;;;;;;5054617;28;20033;-84
2022/11/13 04:56:34;;;;;;;39.70;29.05;;;9.50;99.90;;;;;;5036657;28;20032;-84
2022/11/13 04:59:00;;;;;;;40.15;27.70;;;9.50;99.90;;;;;;5035716;28;20025;-83
2022/11/13 05:01:26;;;;;;;57.83;27.50;;;9.40;99.90;;;;;;5053798;28;20048;-84
2022/11/13 05:03:52;;;;;;;96.90;28.20;;;9.40;99.90;;;;;;5036371;28;20029;-83
2022/11/13 05:06:18;;;;;;;120.90;28.88;;;9.40;99.90;;;;;;5036485;28;20407;-84
2022/11/13 05:08:44;;;;;;;61.33;27.25;;;9.50;99.90;;;;;;5053969;28;20037;-83
2022/11/13 05:11:10;;;;;;;146.90;29.65;;;9.50;99.90;;;;;;5053310;28;20049;-84
2022/11/13 05:13:37;;;;;;;48.63;28.77;;;9.50;99.90;;;;;;5054133;28;20040;-84
2022/11/13 05:16:08;;;;;;;42.60;31.15;;;9.60;99.90;;;;;;5053513;28;20047;-84
2022/11/13 05:18:36;;;;;;;46.03;29.88;;;9.60;99.90;;;;;;5035324;28;20041;-84
2022/11/13 05:21:02;;;;;;;111.50;29.33;;;9.60;99.90;;;;;;5054114;28;20029;-83
2022/11/13 05:23:28;;;;;;;61.70;29.67;;;9.60;99.90;;;;;;5054037;28;20393;-84
2022/11/13 05:26:02;;;;;;;62.38;28.08;;;9.50;99.90;;;;;;5053762;28;20033;-84
2022/11/13 05:28:28;;;;;;;44.40;27.70;;;9.60;99.90;;;;;;5052725;28;20029;-84
2022/11/13 05:31:11;;;;;;;61.17;29.05;;;9.60;99.90;;;;;;5053403;28;20033;-83
2022/11/13 05:33:37;;;;;;;51.17;28.63;;;9.60;99.90;;;;;;5035825;28;20033;-84
2022/11/13 05:36:11;;;;;;;70.78;28.05;;;9.50;99.90;;;;;;5053582;28;20025;-84
2022/11/13 05:38:37;;;;;;;65.95;28.63;;;9.40;99.90;;;;;;5036028;28;20033;-83
2022/11/13 05:41:05;;;;;;;63.60;28.95;;;9.40;99.90;;;;;;5035434;28;20045;-84
2022/11/13 05:43:31;;;;;;;67.22;27.30;;;9.40;99.90;;;;;;5035925;28;20029;-84
2022/11/13 05:46:02;;;;;;;59.70;29.08;;;9.40;99.90;;;;;;5035283;28;20029;-84
2022/11/13 05:48:28;;;;;;;73.00;30.05;;;9.50;99.90;;;;;;5035202;28;20036;-84
2022/11/13 05:51:00;;;;;;;49.03;28.13;;;9.50;99.90;;;;;;5035766;28;20037;-83
2022/11/13 05:53:27;;;;;;;52.88;29.20;;;9.50;99.90;;;;;;5019229;28;20032;-84
2022/11/13 05:55:53;;;;;;;145.55;33.15;;;9.50;99.90;;;;;;5053160;28;20025;-83
2022/11/13 05:58:19;;;;;;;85.60;29.67;;;9.60;99.90;;;;;;5035432;28;20096;-84
2022/11/13 06:00:45;;;;;;;75.53;29.45;;;9.80;99.90;;;;;;5034254;28;20029;-84
2022/11/13 06:03:11;;;;;;;182.77;34.55;;;9.70;99.90;;;;;;5035080;28;20393;-84
2022/11/13 06:05:37;;;;;;;168.32;32.22;;;9.70;99.90;;;;;;5035281;28;20025;-84
2022/11/13 06:08:03;;;;;;;121.25;31.40;;;10.00;99.90;;;;;;5018302;28;20501;-84
2022/11/13 06:10:29;;;;;;;96.80;30.42;;;10.10;99.90;;;;;;5052650;28;20401;-84
2022/11/13 06:12:55;;;;;;;69.68;29.10;;;10.20;99.90;;;;;;5035370;28;20025;-84
2022/11/13 06:15:22;;;;;;;96.40;30.30;;;9.90;99.90;;;;;;5052458;28;20056;-84
2022/11/13 06:17:48;;;;;;;171.75;32.05;;;9.90;99.90;;;;;;5033864;28;20037;-83
2022/11/13 06:20:14;;;;;;;115.90;32.22;;;10.00;99.90;;;;;;5017984;28;20370;-84
2022/11/13 06:22:40;;;;;;;77.43;33.35;;;10.00;99.90;;;;;;5052786;28;20029;-84
2022/11/13 06:25:06;;;;;;;271.42;42.00;;;9.80;99.90;;;;;;5052775;28;20029;-84
2022/11/13 06:27:33;;;;;;;106.68;34.75;;;9.80;99.90;;;;;;5034687;28;20081;-84
2022/11/13 06:29:59;;;;;;;198.27;33.72;;;9.70;99.90;;;;;;5035512;28;20041;-84
2022/11/13 06:32:25;;;;;;;237.30;33.65;;;9.50;99.90;;;;;;5033622;28;20033;-84
2022/11/13 06:34:51;;;;;;;126.78;33.92;;;9.50;99.90;;;;;;5034869;28;20039;-84
2022/11/13 06:37:17;;;;;;;78.40;33.60;;;9.50;99.90;;;;;;5034575;28;20041;-84
2022/11/13 06:39:43;;;;;;;338.27;44.17;;;9.40;99.90;;;;;;5017572;28;20044;-84
2022/11/13 06:42:09;;;;;;;243.18;40.88;;;9.40;99.90;;;;;;5051554;28;20036;-84
2022/11/13 06:44:35;;;;;;;93.53;35.45;;;9.60;99.90;;;;;;5033725;28;20052;-84
2022/11/13 06:47:01;;;;;;;59.60;34.38;;;9.80;99.90;;;;;;5051666;28;20508;-84
2022/11/13 06:49:27;;;;;;;52.72;31.88;;;9.60;99.90;;;;;;5034451;28;20045;-83
2022/11/13 06:51:53;;;;;;;94.45;31.25;;;9.50;99.90;;;;;;5033991;28;20041;-83
2022/11/13 06:54:20;;;;;;;144.77;31.33;;;9.40;99.90;;;;;;5052322;28;20359;-83
2022/11/13 06:56:46;;;;;;;62.03;27.55;;;9.40;99.90;;;;;;5052378;28;20036;-83
2022/11/13 06:59:12;;;;;;;48.88;27.35;;;9.30;99.90;;;;;;5052031;28;20029;-84
2022/11/13 07:01:38;;;;;;;140.50;29.95;;;9.10;99.90;;;;;;5033740;28;20037;-84
2022/11/13 07:04:05;;;;;;;63.95;29.13;;;9.10;99.90;;;;;;5052204;28;20028;-84
2022/11/13 07:06:31;;;;;;;34.97;26.63;;;9.00;99.90;;;;;;5052154;28;20025;-83
2022/11/13 07:08:57;;;;;;;136.48;34.72;;;9.00;99.90;;;;;;5034587;28;20036;-83
2022/11/13 07:11:23;;;;;;;139.55;32.13;;;9.00;99.90;;;;;;5052292;28;20029;-84
2022/11/13 07:13:49;;;;;;;49.65;29.15;;;9.20;99.90;;;;;;5052048;28;20025;-83
2022/11/13 07:16:16;;;;;;;88.20;29.30;;;9.20;99.90;;;;;;5051592;28;20544;-84
2022/11/13 07:18:42;;;;;;;160.07;33.33;;;9.20;99.90;;;;;;5052319;28;20025;-84
2022/11/13 07:21:10;;;;;;;151.05;34.03;;;9.40;99.90;;;;;;5034847;28;20385;-84
2022/11/13 07:23:38;;;;;;;35.05;31.63;;;9.60;99.90;;;;;;5038404;28;20021;-84
2022/11/13 07:26:05;;;;;;;29.17;26.05;;;9.70;99.90;;;;;;5038659;28;20025;-84
2022/11/13 07:28:31;;;;;;;67.30;27.45;;;9.50;99.90;;;;;;5055797;28;20032;-83
2022/11/13 07:30:57;;;;;;;159.55;29.90;;;9.30;99.90;;;;;;5055460;28;20401;-84
2022/11/13 07:33:24;;;;;;;87.47;30.65;;;9.40;99.90;;;;;;5037533;28;20413;-84
2022/11/13 07:35:55;;;;;;;32.17;28.42;;;9.50;99.90;;;;;;5056021;28;20032;-83
2022/11/13 07:38:21;;;;;;;229.63;34.40;;;9.50;99.90;;;;;;5021287;28;20041;-84
2022/11/13 07:40:47;;;;;;;36.75;28.02;;;9.50;99.90;;;;;;5038093;28;20060;-84
2022/11/13 07:43:13;;;;;;;29.98;27.77;;;9.60;99.90;;;;;;5055580;28;20021;-84
2022/11/13 07:45:40;;;;;;;53.25;29.80;;;9.30;99.90;;;;;;5018583;28;20021;-84
2022/11/13 07:48:06;;;;;;;29.88;27.23;;;9.10;99.90;;;;;;5037845;28;20029;-84
2022/11/13 07:50:34;;;;;;;30.10;24.52;;;9.10;99.90;;;;;;5055661;28;20044;-83
2022/11/13 07:53:02;;;;;;;126.05;30.60;;;9.00;99.90;;;;;;5037768;28;20036;-84
2022/11/13 07:55:28;;;;;;;32.50;29.55;;;9.10;99.90;;;;;;5038019;28;20025;-84
2022/11/13 07:57:58;;;;;;;34.47;29.83;;;9.20;99.90;;;;;;5020226;28;20048;-84
2022/11/13 08:00:28;;;;;;;35.95;27.83;;;9.10;99.90;;;;;;5055111;28;20025;-84
2022/11/13 08:02:54;;;;;;;46.55;26.67;;;9.00;99.90;;;;;;5004525;28;20041;-83
2022/11/13 08:05:20;;;;;;;143.60;36.17;;;9.00;99.90;;;;;;5055271;28;20033;-84
2022/11/13 08:07:50;;;;;;;46.25;28.50;;;9.20;99.90;;;;;;5055429;28;20036;-84
2022/11/13 08:10:16;;;;;;;46.35;27.77;;;9.30;99.90;;;;;;5037423;28;20043;-84
2022/11/13 08:12:43;;;;;;;42.38;28.60;;;9.40;99.90;;;;;;5037250;28;20029;-84
2022/11/13 08:15:09;;;;;;;217.43;36.17;;;9.30;99.90;;;;;;5037068;28;20029;-82
2022/11/13 08:17:35;;;;;;;54.17;30.15;;;9.40;99.90;;;;;;5055284;28;20362;-84
2022/11/13 08:20:02;;;;;;;38.58;29.73;;;9.40;99.90;;;;;;5037244;28;20036;-84
2022/11/13 08:22:29;;;;;;;42.47;30.38;;;9.50;99.90;;;;;;5055105;28;20028;-83
2022/11/13 08:24:55;;;;;;;66.82;31.17;;;9.40;99.90;;;;;;5037309;28;20033;-84
2022/11/13 08:27:21;;;;;;;36.92;30.63;;;9.30;99.90;;;;;;5054716;28;20473;-83
2022/11/13 08:29:48;;;;;;;55.00;30.63;;;9.20;99.90;;;;;;5037326;28;20059;-84
2022/11/13 08:32:15;;;;;;;39.08;27.67;;;9.10;99.90;;;;;;5036574;28;20033;-83
2022/11/13 08:34:41;;;;;;;40.75;27.70;;;9.00;99.90;;;;;;5036085;28;20044;-83
2022/11/13 08:37:08;;;;;;;42.67;27.75;;;9.00;99.90;;;;;;5054859;28;20385;-83
2022/11/13 08:39:34;;;;;;;31.60;28.40;;;8.90;99.90;;;;;;5037094;28;20497;-83
2022/11/13 08:42:01;;;;;;;70.68;29.63;;;9.00;99.90;;;;;;5054133;28;20481;-84
2022/11/13 08:44:27;;;;;;;28.77;25.88;;;9.00;99.90;;;;;;5037166;28;20036;-84
2022/11/13 08:46:53;;;;;;;43.85;28.55;;;9.10;99.90;;;;;;5054011;28;20033;-84
2022/11/13 08:49:20;;;;;;;48.25;26.40;;;9.00;99.90;;;;;;5036652;28;20474;-84
2022/11/13 08:51:46;;;;;;;34.22;24.98;;;9.10;99.90;;;;;;5054774;28;20037;-81
2022/11/13 08:54:12;;;;;;;78.78;28.95;;;9.10;99.90;;;;;;5054466;28;20040;-81
2022/11/13 08:56:38;;;;;;;64.70;28.15;;;9.10;99.90;;;;;;5054135;28;20382;-81
2022/11/13 08:59:04;;;;;;;46.55;29.73;;;9.10;99.90;;;;;;5054421;28;20029;-81
2022/11/13 09:01:30;;;;;;;59.35;29.73;;;9.20;99.90;;;;;;5053933;28;20029;-81
2022/11/13 09:03:57;;;;;;;43.80;29.83;;;9.30;99.90;;;;;;5054474;28;20033;-82
2022/11/13 09:06:24;;;;;;;44.42;33.53;;;9.50;99.90;;;;;;5054160;28;20458;-81
2022/11/13 09:08:50;;;;;;;34.67;31.63;;;9.60;99.90;;;;;;5054308;28;20033;-81
2022/11/13 09:11:16;;;;;;;39.10;34.60;;;9.80;99.90;;;;;;5053973;28;20037;-81
2022/11/13 09:13:42;;;;;;;39.28;33.63;;;9.80;99.90;;;;;;5035985;28;20501;-81
2022/11/13 09:16:08;;;;;;;44.25;31.90;;;9.70;99.90;;;;;;5053592;28;20037;-81
2022/11/13 09:18:35;;;;;;;43.60;36.33;;;9.80;99.90;;;;;;5053418;28;20037;-82
2022/11/13 09:21:04;;;;;;;57.78;36.67;;;9.80;99.90;;;;;;5054509;28;20131;-82
2022/11/13 09:23:30;;;;;;;45.03;38.28;;;9.80;99.90;;;;;;5036764;28;20037;-82
2022/11/13 09:25:59;;;;;;;55.25;35.17;;;9.70;99.90;;;;;;5053807;28;20389;-82
2022/11/13 09:28:25;;;;;;;43.45;39.65;;;9.70;99.90;;;;;;5036242;28;20037;-81
2022/11/13 09:30:51;;;;;;;46.35;33.70;;;9.80;99.90;;;;;;5053336;28;20052;-81
2022/11/13 09:33:17;;;;;;;43.22;39.38;;;9.70;99.90;;;;;;5053915;28;20032;-81
2022/11/13 09:35:43;;;;;;;67.40;41.33;;;9.70;99.90;;;;;;5053807;28;20029;-82
2022/11/13 09:38:11;;;;;;;42.05;38.05;;;9.80;99.90;;;;;;5036080;28;20033;-82
2022/11/13 09:40:51;;;;;;;42.55;39.42;;;9.80;99.90;;;;;;5052107;28;20163;-81
2022/11/13 09:43:21;;;;;;;40.78;37.20;;;9.80;99.90;;;;;;5053548;28;20021;-81
2022/11/13 09:45:48;;;;;;;42.42;38.38;;;9.80;99.90;;;;;;5035047;28;20025;-82
2022/11/13 09:48:19;;;;;;;42.35;38.28;;;9.80;99.90;;;;;;5035027;28;20104;-81
2022/11/13 09:50:45;;;;;;;44.33;39.63;;;9.70;99.90;;;;;;5035583;28;20040;-82
2022/11/13 09:53:11;;;;;;;55.92;48.92;;;9.70;99.90;;;;;;5019370;28;20389;-82
2022/11/13 09:55:42;;;;;;;43.65;40.13;;;9.80;99.90;;;;;;5053555;28;20393;-82
2022/11/13 09:58:21;;;;;;;43.83;39.70;;;9.80;99.90;;;;;;5019577;28;20029;-81
2022/11/13 10:00:47;;;;;;;49.00;43.15;;;9.90;99.90;;;;;;5035152;28;20025;-82
2022/11/13 10:03:36;;;;;;;43.90;39.92;;;9.90;99.90;;;;;;5019259;28;20044;-82
2022/11/13 10:06:23;;;;;;;50.25;46.83;;;10.00;99.90;;;;;;5052946;28;20107;-82
2022/11/13 10:08:51;;;;;;;46.42;42.47;;;10.10;99.90;;;;;;5042173;28;20481;-82
2022/11/13 10:11:35;;;;;;;46.10;42.30;;;10.10;99.90;;;;;;5034815;28;20040;-82
2022/11/13 10:14:18;;;;;;;46.13;40.38;;;10.10;99.90;;;;;;5035277;28;20025;-82
2022/11/13 10:16:49;;;;;;;47.45;35.95;;;10.00;99.90;;;;;;5052500;28;20038;-82
2022/11/13 10:19:26;;;;;;;;;;;10.00;99.90;;;;;;5034718;28;20029;-81
2022/11/13 10:22:28;;;;;;;69.93;40.65;;;9.90;99.90;;;;;;5053192;28;19905;-82
2022/11/13 10:25:00;;;;;;;64.43;43.53;;;9.90;99.90;;;;;;5026807;28;20045;-82
2022/11/13 10:27:26;;;;;;;49.42;45.40;;;10.10;99.90;;;;;;5017973;28;20037;-82
2022/11/13 10:29:52;;;;;;;51.72;47.38;;;10.20;99.90;;;;;;5034068;28;20040;-82
2022/11/13 10:32:20;;;;;;;50.75;47.05;;;10.20;99.90;;;;;;5052492;28;20049;-82
2022/11/13 10:35:11;;;;;;;49.85;45.80;;;10.20;99.90;;;;;;5034436;28;20040;-82
2022/11/13 10:37:46;;;;;;;52.78;48.42;;;10.20;99.90;;;;;;5037100;28;20040;-82
2022/11/13 10:40:25;;;;;;;54.10;49.38;;;10.30;99.90;;;;;;5052430;28;20041;-82
2022/11/13 10:42:51;;;;;;;50.30;45.08;;;10.40;99.90;;;;;;5035683;28;20470;-82
2022/11/13 10:45:19;;;;;;;54.47;49.83;;;10.50;99.90;;;;;;5034462;28;20032;-82
2022/11/13 10:47:49;;;;;;;60.35;56.22;;;10.50;99.90;;;;;;5034943;28;20029;-82
2022/11/13 10:50:20;;;;;;;56.40;52.03;;;10.60;99.90;;;;;;5052569;28;20045;-82
2022/11/13 10:52:47;;;;;;;51.42;47.50;;;10.60;99.90;;;;;;5052160;28;20036;-82
2022/11/13 10:55:38;;;;;;;46.50;42.70;;;10.70;99.90;;;;;;5033176;28;20424;-82
2022/11/13 10:58:13;;;;;;;46.85;43.25;;;10.70;99.90;;;;;;5052303;28;20021;-82
2022/11/13 11:00:43;;;;;;;47.65;43.92;;;10.70;99.90;;;;;;5051829;28;20071;-82
2022/11/13 11:03:14;;;;;;;46.30;42.58;;;10.70;99.90;;;;;;5051578;28;20041;-83
2022/11/13 11:06:02;;;;;;;52.90;48.92;;;10.80;99.90;;;;;;5017811;28;20385;-82
2022/11/13 11:08:33;;;;;;;43.17;38.85;;;10.80;99.90;;;;;;5036468;28;20033;-82
2022/11/13 11:14:24;;;;;;;42.80;38.13;;;11.00;99.90;;;;;;5038051;28;20036;-82
2022/11/13 11:16:51;;;;;;;48.20;44.25;;;11.00;99.90;;;;;;5045568;28;20025;-82
2022/11/13 11:19:17;;;;;;;46.92;43.42;;;11.00;99.90;;;;;;5016978;28;20033;-82
2022/11/13 11:21:43;;;;;;;40.22;36.90;;;11.10;99.90;;;;;;5034122;28;20059;-82
2022/11/13 11:24:28;;;;;;;42.72;38.92;;;11.10;99.90;;;;;;5001683;28;20029;-82
2022/11/13 11:27:09;;;;;;;44.95;40.78;;;11.10;99.90;;;;;;5019943;28;20036;-83
2022/11/13 11:29:40;;;;;;;40.30;36.63;;;11.10;99.90;;;;;;5034265;28;20358;-82
2022/11/13 11:32:51;;;;;;;41.45;37.95;;;11.10;99.90;;;;;;5051658;28;20060;-82
2022/11/13 11:35:23;;;;;;;39.97;36.67;;;11.10;99.90;;;;;;5042420;28;20040;-83
2022/11/13 11:37:59;;;;;;;43.72;40.17;;;11.10;99.90;;;;;;5035154;28;20025;-82
2022/11/13 11:40:43;;;;;;;40.13;36.05;;;11.20;99.90;;;;;;5032044;28;20041;-83
2022/11/13 11:43:15;;;;;;;120.13;39.75;;;11.00;99.90;;;;;;5030484;28;20046;-82
2022/11/13 11:45:42;;;;;;;45.00;40.65;;;11.00;99.90;;;;;;5030355;28;20042;-82
2022/11/13 11:48:16;;;;;;;51.20;47.28;;;11.10;99.90;;;;;;5030952;28;20410;-83
2022/11/13 11:51:04;;;;;;;56.70;52.63;;;11.20;99.90;;;;;;5030339;28;20025;-82
2022/11/13 11:53:33;;;;;;;44.78;40.38;;;11.40;99.90;;;;;;5032040;28;20036;-82
2022/11/13 11:56:36;;;;;;;43.42;40.10;;;11.40;99.90;;;;;;5031983;28;20030;-82
2022/11/13 11:59:09;;;;;;;55.95;51.95;;;11.30;99.90;;;;;;5030949;28;20026;-82
2022/11/13 12:02:05;;;;;;;42.40;38.92;;;11.50;99.90;;;;;;5013936;28;20033;-82
2022/11/13 12:05:09;;;;;;;45.63;41.80;;;11.50;99.90;;;;;;5030093;28;20038;-82
2022/11/13 12:07:59;;;;;;;58.10;53.47;;;11.40;99.90;;;;;;5033203;28;20034;-82
2022/11/13 12:11:03;;;;;;;56.10;51.97;;;11.50;99.90;;;;;;5034536;28;20044;-82
2022/11/13 12:13:43;;;;;;;49.53;45.80;;;11.50;99.90;;;;;;5034358;28;20037;-82
2022/11/13 12:16:29;;;;;;;47.15;43.50;;;11.60;99.90;;;;;;5033804;28;20041;-83
2022/11/13 12:19:38;;;;;;;44.63;41.10;;;11.60;99.90;;;;;;5033916;28;20029;-82
2022/11/13 12:22:21;;;;;;;43.63;40.20;;;11.60;99.90;;;;;;5033816;28;20033;-83
2022/11/13 12:25:12;;;;;;;53.00;49.10;;;11.60;99.90;;;;;;5034131;28;20025;-82
2022/11/13 12:27:57;;;;;;;55.97;51.50;;;11.60;99.90;;;;;;5035344;28;20021;-82
2022/11/13 12:30:55;;;;;;;54.83;50.35;;;11.60;99.90;;;;;;5034504;28;20052;-82
2022/11/13 12:33:31;;;;;;;56.75;52.05;;;11.60;99.90;;;;;;5020724;28;20375;-82
2022/11/13 12:35:57;;;;;;;57.83;53.17;;;11.70;99.90;;;;;;5033959;28;20041;-82
2022/11/13 12:38:49;;;;;;;56.72;52.33;;;11.70;99.90;;;;;;5033369;28;20049;-82
2022/11/13 12:41:36;;;;;;;64.63;59.78;;;11.80;99.90;;;;;;5040281;28;20048;-82
2022/11/13 12:44:21;;;;;;;56.92;52.67;;;11.90;99.90;;;;;;5037034;28;20033;-82
2022/11/13 12:46:48;;;;;;;57.03;53.00;;;12.00;99.90;;;;;;5054233;28;20044;-82
2022/11/13 12:49:35;;;;;;;50.03;46.15;;;12.10;99.90;;;;;;5035598;28;20390;-83